createdAt,value
2019-05-21T00:00:09.138Z,35.00
2019-05-21T00:02:37.013Z,31.57
2019-05-21T00:05:05.586Z,33.60
2019-05-21T00:07:33.979Z,31.93
2019-05-21T00:10:02.015Z,33.37
2019-05-21T00:12:30.087Z,28.80
2019-05-21T00:14:58.340Z,31.20
2019-05-21T00:17:26.353Z,31.77
2019-05-21T00:19:55.785Z,31.87
2019-05-21T00:22:24.160Z,30.23
2019-05-21T00:24:52.395Z,31.93
2019-05-21T00:27:20.501Z,30.70
2019-05-21T00:30:06.522Z,35.73
2019-05-21T00:32:52.437Z,29.70
2019-05-21T00:35:47.535Z,31.73
2019-05-21T00:38:33.317Z,31.83
2019-05-21T00:41:19.000Z,29.67
2019-05-21T00:43:50.055Z,28.53
2019-05-21T00:46:17.983Z,32.33
2019-05-21T00:48:46.067Z,30.90
2019-05-21T00:51:14.154Z,31.00
2019-05-21T00:53:42.230Z,28.90
2019-05-21T00:56:10.215Z,28.20
2019-05-21T00:58:38.285Z,25.83
2019-05-21T01:01:06.389Z,30.03
2019-05-21T01:03:34.310Z,29.30
2019-05-21T01:06:02.810Z,29.43
2019-05-21T01:08:30.812Z,28.97
2019-05-21T01:10:58.830Z,27.50
2019-05-21T01:13:26.773Z,29.23
2019-05-21T01:15:54.828Z,32.87
2019-05-21T01:18:23.042Z,28.20
2019-05-21T01:20:51.310Z,27.97
2019-05-21T01:23:19.409Z,27.40
2019-05-21T01:25:47.497Z,29.87
2019-05-21T01:28:15.555Z,30.67
2019-05-21T01:30:43.840Z,31.77
2019-05-21T01:33:11.788Z,28.27
2019-05-21T01:35:39.903Z,30.83
2019-05-21T01:38:07.951Z,27.50
2019-05-21T01:40:35.988Z,31.77
2019-05-21T01:43:03.878Z,30.73
2019-05-21T01:45:31.987Z,32.20
2019-05-21T01:47:59.950Z,29.00
2019-05-21T01:50:27.989Z,28.23
2019-05-21T01:52:56.378Z,30.70
2019-05-21T01:55:24.662Z,28.10
2019-05-21T01:57:52.600Z,31.90
2019-05-21T02:00:20.678Z,29.80
2019-05-21T02:02:48.741Z,26.90
2019-05-21T02:05:31.792Z,30.97
2019-05-21T02:07:46.432Z,26.67
2019-05-21T02:10:14.380Z,27.30
2019-05-21T02:12:42.373Z,28.43
2019-05-21T02:15:10.372Z,32.00
2019-05-21T02:17:38.604Z,30.53
2019-05-21T02:20:06.750Z,29.03
2019-05-21T02:22:34.843Z,27.57
2019-05-21T02:25:02.771Z,30.07
2019-05-21T02:27:31.003Z,31.33
2019-05-21T02:29:59.880Z,28.93
2019-05-21T02:32:27.930Z,27.17
2019-05-21T02:34:56.059Z,23.30
2019-05-21T02:37:24.383Z,26.63
2019-05-21T02:39:52.390Z,29.40
2019-05-21T02:42:20.688Z,25.93
2019-05-21T02:44:48.559Z,28.07
2019-05-21T02:47:16.531Z,27.60
2019-05-21T02:49:44.591Z,26.00
2019-05-21T02:52:12.569Z,28.03
2019-05-21T02:54:41.817Z,24.90
2019-05-21T02:57:10.260Z,25.80
2019-05-21T02:59:39.009Z,28.53
2019-05-21T03:02:16.922Z,28.07
2019-05-21T03:04:45.186Z,27.37
2019-05-21T03:07:19.117Z,31.47
2019-05-21T03:09:49.219Z,28.17
2019-05-21T03:12:17.183Z,29.30
2019-05-21T03:14:45.225Z,28.90
2019-05-21T03:17:13.371Z,27.97
2019-05-21T03:19:41.563Z,25.90
2019-05-21T03:22:09.734Z,29.00
2019-05-21T03:24:37.926Z,31.40
2019-05-21T03:27:07.152Z,27.50
2019-05-21T03:29:35.175Z,29.47
2019-05-21T03:32:03.197Z,28.70
2019-05-21T03:34:31.163Z,26.90
2019-05-21T03:36:59.840Z,29.87
2019-05-21T03:39:28.002Z,29.90
2019-05-21T03:41:55.918Z,29.23
2019-05-21T03:44:23.863Z,32.97
2019-05-21T03:46:52.017Z,28.70
2019-05-21T03:49:19.994Z,30.50
2019-05-21T03:51:47.950Z,27.40
2019-05-21T03:54:16.026Z,28.43
2019-05-21T03:56:43.923Z,29.93
2019-05-21T03:59:12.174Z,29.43
2019-05-21T04:01:40.184Z,30.20
2019-05-21T04:04:08.270Z,26.63
2019-05-21T04:06:50.764Z,29.93
2019-05-21T04:09:06.764Z,28.13
2019-05-21T04:11:34.694Z,28.70
2019-05-21T04:14:02.881Z,27.30
2019-05-21T04:16:56.278Z,28.03
2019-05-21T04:19:27.908Z,27.97
2019-05-21T04:21:56.024Z,28.77
2019-05-21T04:24:23.905Z,28.37
2019-05-21T04:26:51.893Z,35.43
2019-05-21T04:29:19.879Z,30.50
2019-05-21T04:31:47.887Z,29.50
2019-05-21T04:34:16.203Z,28.20
2019-05-21T04:36:44.313Z,26.37
2019-05-21T04:39:12.233Z,31.00
2019-05-21T04:41:40.088Z,27.00
2019-05-21T04:44:08.102Z,32.50
2019-05-21T04:46:36.375Z,28.10
2019-05-21T04:49:04.337Z,29.33
2019-05-21T04:51:32.204Z,29.13
2019-05-21T04:54:00.134Z,25.57
2019-05-21T04:56:28.061Z,26.13
2019-05-21T04:58:56.071Z,27.00
2019-05-21T05:01:24.020Z,29.30
2019-05-21T05:03:52.086Z,24.73
2019-05-21T05:06:19.952Z,30.37
2019-05-21T05:08:48.008Z,27.80
2019-05-21T05:11:15.891Z,22.50
2019-05-21T05:13:45.673Z,27.33
2019-05-21T05:16:13.620Z,25.27
2019-05-21T05:18:41.571Z,24.97
2019-05-21T05:21:09.519Z,24.30
2019-05-21T05:23:38.310Z,25.87
2019-05-21T05:26:06.509Z,26.90
2019-05-21T05:28:34.717Z,27.10
2019-05-21T05:31:02.695Z,25.20
2019-05-21T05:33:30.995Z,29.23
2019-05-21T05:35:58.928Z,22.90
2019-05-21T05:38:26.928Z,25.00
2019-05-21T05:40:56.449Z,27.53
2019-05-21T05:43:24.510Z,24.70
2019-05-21T05:45:52.541Z,25.20
2019-05-21T05:48:20.998Z,26.47
2019-05-21T05:50:50.764Z,31.70
2019-05-21T05:53:18.688Z,23.83
2019-05-21T05:55:46.766Z,27.07
2019-05-21T05:58:14.823Z,23.50
2019-05-21T06:00:42.768Z,22.60
2019-05-21T06:03:10.871Z,29.37
2019-05-21T06:05:38.895Z,27.80
2019-05-21T06:08:06.774Z,23.97
2019-05-21T06:10:34.700Z,21.40
2019-05-21T06:13:02.715Z,25.27
2019-05-21T06:15:30.760Z,22.63
2019-05-21T06:17:58.711Z,23.73
2019-05-21T06:20:26.654Z,21.33
2019-05-21T06:22:54.531Z,23.20
2019-05-21T06:25:22.575Z,24.10
2019-05-21T06:27:50.487Z,18.97
2019-05-21T06:30:18.699Z,22.37
2019-05-21T06:32:46.818Z,19.47
2019-05-21T06:35:15.250Z,20.07
2019-05-21T06:37:43.177Z,20.17
2019-05-21T06:40:11.847Z,21.50
2019-05-21T06:42:39.742Z,20.90
2019-05-21T06:45:08.828Z,19.83
2019-05-21T06:47:36.725Z,19.90
2019-05-21T06:50:04.676Z,21.30
2019-05-21T06:52:32.583Z,17.90
2019-05-21T06:55:00.482Z,18.80
2019-05-21T06:57:28.385Z,17.97
2019-05-21T06:59:56.268Z,20.10
2019-05-21T07:02:24.199Z,20.13
2019-05-21T07:04:52.301Z,20.00
2019-05-21T07:07:20.300Z,18.57
2019-05-21T07:09:48.313Z,19.67
2019-05-21T07:12:16.186Z,17.53
2019-05-21T07:14:44.186Z,16.90
2019-05-21T07:17:12.090Z,19.17
2019-05-21T07:19:40.087Z,17.30
2019-05-21T07:22:12.535Z,17.03
2019-05-21T07:24:37.990Z,18.47
2019-05-21T07:27:05.968Z,18.87
2019-05-21T07:29:33.854Z,19.83
2019-05-21T07:32:01.804Z,19.00
2019-05-21T07:34:29.766Z,19.53
2019-05-21T07:36:57.925Z,17.80
2019-05-21T07:39:25.870Z,20.50
2019-05-21T07:41:53.733Z,19.00
2019-05-21T07:44:21.729Z,18.43
2019-05-21T07:46:49.656Z,17.60
2019-05-21T07:49:17.510Z,20.43
2019-05-21T07:51:45.412Z,19.40
2019-05-21T07:54:13.298Z,20.03
2019-05-21T07:56:41.200Z,21.70
2019-05-21T07:59:09.319Z,21.10
2019-05-21T08:01:37.254Z,19.77
2019-05-21T08:04:05.242Z,22.90
2019-05-21T08:06:33.270Z,20.67
2019-05-21T08:09:12.678Z,22.17
2019-05-21T08:11:30.892Z,18.87
2019-05-21T08:13:58.768Z,21.10
2019-05-21T08:16:26.753Z,18.87
2019-05-21T08:18:54.674Z,19.20
2019-05-21T08:21:22.613Z,17.00
2019-05-21T08:23:50.501Z,18.57
2019-05-21T08:26:18.424Z,21.60
2019-05-21T08:28:46.294Z,20.17
2019-05-21T08:31:14.187Z,19.50
2019-05-21T08:33:42.158Z,21.40
2019-05-21T08:36:10.197Z,22.20
2019-05-21T08:38:38.194Z,21.47
2019-05-21T08:41:06.100Z,22.57
2019-05-21T08:43:34.046Z,20.73
2019-05-21T08:46:02.090Z,19.17
2019-05-21T08:48:29.934Z,19.60
2019-05-21T08:50:57.807Z,21.63
2019-05-21T08:53:25.886Z,19.97
2019-05-21T08:55:53.844Z,22.67
2019-05-21T08:58:21.759Z,20.17
2019-05-21T09:00:49.629Z,17.40
2019-05-21T09:03:17.555Z,20.07
2019-05-21T09:05:45.693Z,22.00
2019-05-21T09:08:13.654Z,17.67
2019-05-21T09:10:42.265Z,19.27
2019-05-21T09:13:10.138Z,17.60
2019-05-21T09:15:38.205Z,19.13
2019-05-21T09:18:06.132Z,20.13
2019-05-21T09:20:34.065Z,17.63
2019-05-21T09:23:02.021Z,17.53
2019-05-21T09:25:29.895Z,17.47
2019-05-21T09:27:57.807Z,18.27
2019-05-21T09:30:25.687Z,18.00
2019-05-21T09:32:53.590Z,16.93
2019-05-21T09:35:21.532Z,17.70
2019-05-21T09:37:49.447Z,18.20
2019-05-21T09:40:17.406Z,17.00
2019-05-21T09:42:45.756Z,18.50
2019-05-21T09:45:13.764Z,18.27
2019-05-21T09:47:41.687Z,16.43
2019-05-21T09:50:09.994Z,16.73
2019-05-21T09:52:37.978Z,16.40
2019-05-21T09:55:06.207Z,15.10
2019-05-21T09:57:39.398Z,17.33
2019-05-21T10:00:33.228Z,17.33
2019-05-21T10:03:01.774Z,17.13
2019-05-21T10:05:29.719Z,17.53
2019-05-21T10:07:57.686Z,19.97
2019-05-21T10:10:25.604Z,15.80
2019-05-21T10:12:53.747Z,17.33
2019-05-21T10:15:21.716Z,17.33
2019-05-21T10:17:49.581Z,16.10
2019-05-21T10:20:17.535Z,15.70
2019-05-21T10:22:45.514Z,15.07
2019-05-21T10:25:15.877Z,15.70
2019-05-21T10:27:43.117Z,14.97
2019-05-21T10:30:11.208Z,17.03
2019-05-21T10:32:39.157Z,16.23
2019-05-21T10:35:07.408Z,15.90
2019-05-21T10:37:35.330Z,16.40
2019-05-21T10:40:03.847Z,18.17
2019-05-21T10:42:31.973Z,17.43
2019-05-21T10:44:59.921Z,17.30
2019-05-21T10:47:27.891Z,17.57
2019-05-21T10:49:55.867Z,15.73
2019-05-21T10:52:23.859Z,17.50
2019-05-21T10:54:51.852Z,16.40
2019-05-21T10:57:20.018Z,16.37
2019-05-21T10:59:47.962Z,16.73
2019-05-21T11:02:34.089Z,16.53
2019-05-21T11:05:05.728Z,20.30
2019-05-21T11:07:33.652Z,15.73
2019-05-21T11:10:01.634Z,15.40
2019-05-21T11:12:29.557Z,14.13
2019-05-21T11:14:57.477Z,15.23
2019-05-21T11:17:25.365Z,15.33
2019-05-21T11:19:53.450Z,15.20
2019-05-21T11:22:21.435Z,14.83
2019-05-21T11:24:49.723Z,15.73
2019-05-21T11:27:17.618Z,14.60
2019-05-21T11:29:46.583Z,14.67
2019-05-21T11:32:14.536Z,14.27
2019-05-21T11:34:42.624Z,14.30
2019-05-21T11:37:10.784Z,14.63
2019-05-21T11:39:38.667Z,14.30
2019-05-21T11:42:06.705Z,14.67
2019-05-21T11:44:34.647Z,14.23
2019-05-21T11:47:02.505Z,15.67
2019-05-21T11:49:30.514Z,15.23
2019-05-21T11:51:58.485Z,13.70
2019-05-21T11:54:26.450Z,15.70
2019-05-21T11:56:54.421Z,13.77
2019-05-21T11:59:22.314Z,14.60
2019-05-21T12:01:50.601Z,14.30
2019-05-21T12:04:18.898Z,15.10
2019-05-21T12:06:46.874Z,14.40
2019-05-21T12:09:15.264Z,14.50
2019-05-21T12:11:43.260Z,13.93
2019-05-21T12:14:11.299Z,15.57
2019-05-21T12:16:39.284Z,14.27
2019-05-21T12:19:09.005Z,14.57
2019-05-21T12:21:37.031Z,13.77
2019-05-21T12:24:06.735Z,13.27
2019-05-21T12:26:35.607Z,14.60
2019-05-21T12:29:03.678Z,14.30
2019-05-21T12:31:31.643Z,12.13
2019-05-21T12:33:59.566Z,13.80
2019-05-21T12:36:28.504Z,13.97
2019-05-21T12:39:12.724Z,13.50
2019-05-21T12:41:26.193Z,12.70
2019-05-21T12:43:54.057Z,13.23
2019-05-21T12:46:21.988Z,12.37
2019-05-21T12:48:49.944Z,12.77
2019-05-21T12:51:17.901Z,11.30
2019-05-21T12:53:45.972Z,11.50
2019-05-21T12:56:13.983Z,11.40
2019-05-21T12:58:42.709Z,11.60
2019-05-21T13:01:10.679Z,11.57
2019-05-21T13:03:38.605Z,10.90
2019-05-21T13:06:06.706Z,12.23
2019-05-21T13:08:34.656Z,10.70
2019-05-21T13:11:02.678Z,8.93
2019-05-21T13:13:30.748Z,9.50
2019-05-21T13:15:58.808Z,9.90
2019-05-21T13:18:26.972Z,9.50
2019-05-21T13:20:54.915Z,10.30
2019-05-21T13:23:22.892Z,9.60
2019-05-21T13:25:50.818Z,9.37
2019-05-21T13:28:18.716Z,9.03
2019-05-21T13:30:46.732Z,8.40
2019-05-21T13:33:14.647Z,8.70
2019-05-21T13:35:42.512Z,9.53
2019-05-21T13:38:13.519Z,10.53
2019-05-21T13:40:40.213Z,7.90
2019-05-21T13:43:08.217Z,10.10
2019-05-21T13:45:36.276Z,9.67
2019-05-21T13:48:07.111Z,9.97
2019-05-21T13:50:35.211Z,10.43
2019-05-21T13:53:03.199Z,9.20
2019-05-21T13:55:33.966Z,9.60
2019-05-21T13:58:01.105Z,9.43
2019-05-21T14:00:48.336Z,10.43
2019-05-21T14:03:16.807Z,10.90
2019-05-21T14:05:44.741Z,11.03
2019-05-21T14:08:12.725Z,10.80
2019-05-21T14:10:40.976Z,11.33
2019-05-21T14:13:09.136Z,10.60
2019-05-21T14:15:37.198Z,11.27
2019-05-21T14:18:05.188Z,10.50
2019-05-21T14:20:33.064Z,11.13
2019-05-21T14:23:01.091Z,10.43
2019-05-21T14:25:29.133Z,11.67
2019-05-21T14:27:57.003Z,12.03
2019-05-21T14:30:24.974Z,10.60
2019-05-21T14:32:52.957Z,13.13
2019-05-21T14:35:21.001Z,13.03
2019-05-21T14:37:51.100Z,11.60
2019-05-21T14:40:31.101Z,11.10
2019-05-21T14:42:59.140Z,12.47
2019-05-21T14:45:19.699Z,11.50
2019-05-21T14:47:47.610Z,12.00
2019-05-21T14:50:15.869Z,11.53
2019-05-21T14:52:43.913Z,11.17
2019-05-21T14:55:12.111Z,11.53
2019-05-21T14:57:40.109Z,10.57
2019-05-21T15:00:18.907Z,11.93
2019-05-21T15:02:46.953Z,12.07
2019-05-21T15:05:15.106Z,11.27
2019-05-21T15:07:43.502Z,11.87
2019-05-21T15:10:11.569Z,12.73
2019-05-21T15:12:41.412Z,12.40
2019-05-21T15:15:13.822Z,11.73
2019-05-21T15:17:41.866Z,12.97
2019-05-21T15:20:16.590Z,13.50
2019-05-21T15:22:45.272Z,11.13
2019-05-21T15:25:15.311Z,12.17
2019-05-21T15:27:44.255Z,11.63
2019-05-21T15:30:15.757Z,11.60
2019-05-21T15:32:45.508Z,12.77
2019-05-21T15:35:13.974Z,13.70
2019-05-21T15:37:44.985Z,12.30
2019-05-21T15:40:12.455Z,14.33
2019-05-21T15:42:40.582Z,13.40
2019-05-21T15:45:08.873Z,16.60
2019-05-21T15:47:36.904Z,15.13
2019-05-21T15:50:05.874Z,15.00
2019-05-21T15:52:33.875Z,13.27
2019-05-21T15:55:06.580Z,13.30
2019-05-21T15:57:31.888Z,13.70
2019-05-21T15:59:59.890Z,11.80
2019-05-21T16:02:27.895Z,10.53
2019-05-21T16:04:55.826Z,9.70
2019-05-21T16:07:23.811Z,10.27
2019-05-21T16:09:51.758Z,9.70
2019-05-21T16:12:19.714Z,8.77
2019-05-21T16:14:47.607Z,7.40
2019-05-21T16:17:15.550Z,7.23
2019-05-21T16:19:43.427Z,5.87
2019-05-21T16:22:11.453Z,5.80
2019-05-21T16:24:39.505Z,6.43
2019-05-21T16:27:07.512Z,6.00
2019-05-21T16:29:35.712Z,5.73
2019-05-21T16:32:04.029Z,5.73
2019-05-21T16:34:32.242Z,4.50
2019-05-21T16:37:00.441Z,5.10
2019-05-21T16:39:28.860Z,5.03
2019-05-21T16:41:56.836Z,5.40
2019-05-21T16:44:25.134Z,5.23
2019-05-21T16:46:53.442Z,5.53
2019-05-21T16:49:21.459Z,4.90
2019-05-21T16:51:49.454Z,6.00
2019-05-21T16:54:17.560Z,5.70
2019-05-21T16:56:46.072Z,5.57
2019-05-21T16:59:14.278Z,5.80
2019-05-21T17:01:42.304Z,6.07
2019-05-21T17:04:10.338Z,5.77
2019-05-21T17:06:38.445Z,5.70
2019-05-21T17:09:06.999Z,6.30
2019-05-21T17:11:35.154Z,5.87
2019-05-21T17:14:03.179Z,7.00
2019-05-21T17:16:31.286Z,5.83
2019-05-21T17:19:00.049Z,9.50
2019-05-21T17:21:28.090Z,8.03
2019-05-21T17:23:58.634Z,7.17
2019-05-21T17:26:26.764Z,7.70
2019-05-21T17:28:55.188Z,8.23
2019-05-21T17:31:24.063Z,9.30
2019-05-21T17:33:52.954Z,7.90
2019-05-21T17:36:20.917Z,8.53
2019-05-21T17:38:49.158Z,7.90
2019-05-21T17:41:17.392Z,8.57
2019-05-21T17:43:45.437Z,9.00
2019-05-21T17:46:13.496Z,8.60
2019-05-21T17:48:41.556Z,9.17
2019-05-21T17:51:09.547Z,7.60
2019-05-21T17:53:37.803Z,9.63
2019-05-21T17:56:06.185Z,9.57
2019-05-21T17:58:34.247Z,9.97
2019-05-21T18:01:04.311Z,10.20
2019-05-21T18:03:32.828Z,11.30
2019-05-21T18:06:00.844Z,12.67
2019-05-21T18:08:29.532Z,12.83
2019-05-21T18:10:58.431Z,12.77
2019-05-21T18:13:27.113Z,13.07
2019-05-21T18:15:56.484Z,12.20
2019-05-21T18:18:25.115Z,13.20
2019-05-21T18:20:53.090Z,12.63
2019-05-21T18:23:21.232Z,14.50
2019-05-21T18:25:49.367Z,13.03
2019-05-21T18:28:17.415Z,11.83
2019-05-21T18:30:45.478Z,12.20
2019-05-21T18:33:13.979Z,12.30
2019-05-21T18:35:45.248Z,13.10
2019-05-21T18:38:12.159Z,13.40
2019-05-21T18:40:40.098Z,14.37
2019-05-21T18:43:08.247Z,15.07
2019-05-21T18:45:36.543Z,16.30
2019-05-21T18:48:04.847Z,17.70
2019-05-21T18:50:36.709Z,17.37
2019-05-21T18:53:02.875Z,16.93
2019-05-21T18:55:30.918Z,17.33
2019-05-21T18:57:59.098Z,17.73
2019-05-21T19:00:27.279Z,17.80
2019-05-21T19:02:55.350Z,17.57
2019-05-21T19:05:23.386Z,18.33
2019-05-21T19:07:51.734Z,18.13
2019-05-21T19:10:20.281Z,17.30
2019-05-21T19:12:48.505Z,17.33
2019-05-21T19:15:16.639Z,16.53
2019-05-21T19:17:44.672Z,15.80
2019-05-21T19:20:13.422Z,16.53
2019-05-21T19:22:42.317Z,15.70
2019-05-21T19:25:11.133Z,16.90
2019-05-21T19:27:39.974Z,17.83
2019-05-21T19:30:08.674Z,15.23
2019-05-21T19:32:36.791Z,16.37
2019-05-21T19:35:05.240Z,14.73
2019-05-21T19:37:33.348Z,16.50
2019-05-21T19:40:01.661Z,17.00
2019-05-21T19:42:29.747Z,16.37
2019-05-21T19:44:57.883Z,18.10
2019-05-21T19:47:25.897Z,16.80
2019-05-21T19:49:53.963Z,16.40
2019-05-21T19:52:22.011Z,18.53
2019-05-21T19:54:50.105Z,16.13
2019-05-21T19:57:19.802Z,16.80
2019-05-21T19:59:48.376Z,16.70
2019-05-21T20:02:17.049Z,17.00
2019-05-21T20:04:46.118Z,15.53
2019-05-21T20:07:16.271Z,16.97
2019-05-21T20:09:45.383Z,16.00
2019-05-21T20:12:13.925Z,17.13
2019-05-21T20:14:42.436Z,16.90
2019-05-21T20:17:11.003Z,17.17
2019-05-21T20:19:39.644Z,18.33
2019-05-21T20:22:09.319Z,17.43
2019-05-21T20:24:38.806Z,17.10
2019-05-21T20:27:07.310Z,18.37
2019-05-21T20:29:35.339Z,18.47
2019-05-21T20:32:05.178Z,18.37
2019-05-21T20:34:33.145Z,17.93
2019-05-21T20:37:01.955Z,17.77
2019-05-21T20:39:30.819Z,17.80
2019-05-21T20:41:58.805Z,20.57
2019-05-21T20:44:27.250Z,18.63
2019-05-21T20:46:57.180Z,21.07
2019-05-21T20:49:25.182Z,24.50
2019-05-21T20:51:53.434Z,20.73
2019-05-21T20:54:21.764Z,20.47
2019-05-21T20:56:49.904Z,21.50
2019-05-21T20:59:17.837Z,18.73
2019-05-21T21:01:46.319Z,19.43
2019-05-21T21:04:14.394Z,22.87
2019-05-21T21:06:42.689Z,21.60
2019-05-21T21:09:11.899Z,21.90
2019-05-21T21:11:40.864Z,23.80
2019-05-21T21:14:18.049Z,23.87
2019-05-21T21:16:41.812Z,21.67
2019-05-21T21:19:10.745Z,24.40
2019-05-21T21:21:39.830Z,23.30
2019-05-21T21:24:08.231Z,25.20
2019-05-21T21:26:36.870Z,22.83
2019-05-21T21:29:05.293Z,23.83
2019-05-21T21:31:33.470Z,22.80
2019-05-21T21:34:01.835Z,25.03
2019-05-21T21:36:30.058Z,23.37
2019-05-21T21:38:59.754Z,25.07
2019-05-21T21:41:28.311Z,23.50
2019-05-21T21:43:56.185Z,22.53
2019-05-21T21:46:24.349Z,23.07
2019-05-21T21:48:52.284Z,23.07
2019-05-21T21:51:20.320Z,25.33
2019-05-21T21:53:48.853Z,23.90
2019-05-21T21:56:16.734Z,24.10
2019-05-21T21:58:44.846Z,27.97
2019-05-21T22:01:47.014Z,25.33
2019-05-21T22:04:16.851Z,27.77
2019-05-21T22:06:45.605Z,28.73
2019-05-21T22:09:18.898Z,28.63
2019-05-21T22:11:46.843Z,28.90
2019-05-21T22:14:15.792Z,24.10
2019-05-21T22:16:44.222Z,28.13
2019-05-21T22:19:12.631Z,31.70
2019-05-21T22:21:40.641Z,26.60
2019-05-21T22:24:09.034Z,28.60
2019-05-21T22:26:37.559Z,27.83
2019-05-21T22:29:05.959Z,28.00
2019-05-21T22:31:34.301Z,29.10
2019-05-21T22:34:02.589Z,25.47
2019-05-21T22:36:31.340Z,28.90
2019-05-21T22:38:59.658Z,26.80
2019-05-21T22:41:27.809Z,28.90
2019-05-21T22:43:55.963Z,30.03
2019-05-21T22:46:24.038Z,28.50
2019-05-21T22:48:52.934Z,27.43
2019-05-21T22:51:21.510Z,29.13
2019-05-21T22:53:49.617Z,29.03
2019-05-21T22:56:17.950Z,29.63
2019-05-21T22:58:46.092Z,28.47
2019-05-21T23:01:14.428Z,27.83
2019-05-21T23:03:42.466Z,26.53
2019-05-21T23:06:10.547Z,30.13
2019-05-21T23:08:39.175Z,29.50
2019-05-21T23:11:07.331Z,32.13
2019-05-21T23:13:35.478Z,31.27
2019-05-21T23:16:04.806Z,30.93
2019-05-21T23:18:33.929Z,32.30
2019-05-21T23:21:03.955Z,31.40
2019-05-21T23:23:33.411Z,33.87
2019-05-21T23:26:02.315Z,35.60
2019-05-21T23:28:31.114Z,33.43
2019-05-21T23:31:01.409Z,31.17
2019-05-21T23:33:30.703Z,28.87
2019-05-21T23:35:58.738Z,34.03
2019-05-21T23:38:27.977Z,30.23
2019-05-21T23:40:56.554Z,32.50
2019-05-21T23:43:24.817Z,31.47
2019-05-21T23:45:53.231Z,32.70
2019-05-21T23:48:22.178Z,30.17
2019-05-21T23:50:50.262Z,35.80
2019-05-21T23:53:18.430Z,32.07
2019-05-21T23:55:47.151Z,31.70
2019-05-21T23:58:15.797Z,30.43
